sensor_id;sensor_type;location;lat;lon;timestamp;P1;durP1;ratioP1;P2;durP2;ratioP2
52738;SDS011;52466;40.122;18.318;2022-07-22T00:02:08;67.05;;;55.80;;
52738;SDS011;52466;40.122;18.318;2022-07-22T00:05:16;66.72;;;56.50;;
52738;SDS011;52466;40.122;18.318;2022-07-22T00:08:23;63.65;;;55.58;;
52738;SDS011;52466;40.122;18.318;2022-07-22T00:11:31;64.18;;;55.50;;
52738;SDS011;52466;40.122;18.318;2022-07-22T00:14:39;67.30;;;56.28;;
52738;SDS011;52466;40.122;18.318;2022-07-22T00:17:47;62.08;;;55.33;;
52738;SDS011;52466;40.122;18.318;2022-07-22T00:20:55;63.13;;;55.42;;
52738;SDS011;52466;40.122;18.318;2022-07-22T00:24:03;61.90;;;55.15;;
52738;SDS011;52466;40.122;18.318;2022-07-22T00:27:11;60.72;;;54.22;;
52738;SDS011;52466;40.122;18.318;2022-07-22T00:30:19;61.03;;;54.53;;
52738;SDS011;52466;40.122;18.318;2022-07-22T00:33:26;60.45;;;54.25;;
52738;SDS011;52466;40.122;18.318;2022-07-22T00:36:34;60.90;;;53.75;;
52738;SDS011;52466;40.122;18.318;2022-07-22T00:39:42;62.33;;;54.38;;
52738;SDS011;52466;40.122;18.318;2022-07-22T00:42:50;60.85;;;54.50;;
52738;SDS011;52466;40.122;18.318;2022-07-22T00:45:57;61.45;;;54.67;;
52738;SDS011;52466;40.122;18.318;2022-07-22T00:49:06;64.20;;;55.60;;
52738;SDS011;52466;40.122;18.318;2022-07-22T00:52:15;62.00;;;55.15;;
52738;SDS011;52466;40.122;18.318;2022-07-22T00:55:25;61.83;;;55.05;;
52738;SDS011;52466;40.122;18.318;2022-07-22T00:58:33;60.72;;;54.42;;
52738;SDS011;52466;40.122;18.318;2022-07-22T01:01:40;63.72;;;55.05;;
52738;SDS011;52466;40.122;18.318;2022-07-22T01:04:48;61.58;;;54.88;;
52738;SDS011;52466;40.122;18.318;2022-07-22T01:07:56;60.50;;;54.13;;
52738;SDS011;52466;40.122;18.318;2022-07-22T01:11:07;62.10;;;55.38;;
52738;SDS011;52466;40.122;18.318;2022-07-22T01:14:17;61.53;;;54.42;;
52738;SDS011;52466;40.122;18.318;2022-07-22T01:17:25;60.70;;;54.35;;
52738;SDS011;52466;40.122;18.318;2022-07-22T01:20:34;60.13;;;53.85;;
52738;SDS011;52466;40.122;18.318;2022-07-22T01:23:42;59.97;;;53.87;;
52738;SDS011;52466;40.122;18.318;2022-07-22T01:26:51;60.28;;;53.85;;
52738;SDS011;52466;40.122;18.318;2022-07-22T01:29:58;60.08;;;53.80;;
52738;SDS011;52466;40.122;18.318;2022-07-22T01:33:06;60.30;;;53.92;;
52738;SDS011;52466;40.122;18.318;2022-07-22T01:36:14;62.22;;;54.10;;
52738;SDS011;52466;40.122;18.318;2022-07-22T01:39:22;60.67;;;54.28;;
52738;SDS011;52466;40.122;18.318;2022-07-22T01:42:30;61.30;;;54.70;;
52738;SDS011;52466;40.122;18.318;2022-07-22T01:45:38;60.20;;;53.95;;
52738;SDS011;52466;40.122;18.318;2022-07-22T01:48:45;61.25;;;54.78;;
52738;SDS011;52466;40.122;18.318;2022-07-22T01:51:53;59.78;;;53.42;;
52738;SDS011;52466;40.122;18.318;2022-07-22T01:55:01;60.35;;;54.03;;
52738;SDS011;52466;40.122;18.318;2022-07-22T01:58:10;60.38;;;54.08;;
52738;SDS011;52466;40.122;18.318;2022-07-22T02:01:18;61.13;;;54.40;;
52738;SDS011;52466;40.122;18.318;2022-07-22T02:04:26;60.50;;;54.10;;
52738;SDS011;52466;40.122;18.318;2022-07-22T02:07:34;60.35;;;53.97;;
52738;SDS011;52466;40.122;18.318;2022-07-22T02:10:43;60.53;;;54.25;;
52738;SDS011;52466;40.122;18.318;2022-07-22T02:13:51;62.08;;;53.28;;
52738;SDS011;52466;40.122;18.318;2022-07-22T02:16:55;59.65;;;53.35;;
52738;SDS011;52466;40.122;18.318;2022-07-22T02:20:03;60.08;;;53.88;;
52738;SDS011;52466;40.122;18.318;2022-07-22T02:23:11;59.85;;;53.67;;
52738;SDS011;52466;40.122;18.318;2022-07-22T02:26:19;59.50;;;53.13;;
52738;SDS011;52466;40.122;18.318;2022-07-22T02:29:27;60.35;;;53.70;;
52738;SDS011;52466;40.122;18.318;2022-07-22T02:32:35;60.28;;;53.97;;
52738;SDS011;52466;40.122;18.318;2022-07-22T02:35:43;59.70;;;53.45;;
52738;SDS011;52466;40.122;18.318;2022-07-22T02:38:51;59.90;;;53.65;;
52738;SDS011;52466;40.122;18.318;2022-07-22T02:41:58;60.67;;;54.17;;
52738;SDS011;52466;40.122;18.318;2022-07-22T02:45:07;60.47;;;54.05;;
52738;SDS011;52466;40.122;18.318;2022-07-22T02:48:15;63.25;;;55.70;;
52738;SDS011;52466;40.122;18.318;2022-07-22T02:51:24;70.97;;;54.38;;
52738;SDS011;52466;40.122;18.318;2022-07-22T02:54:31;62.97;;;54.25;;
52738;SDS011;52466;40.122;18.318;2022-07-22T02:57:41;61.65;;;54.83;;
52738;SDS011;52466;40.122;18.318;2022-07-22T03:00:49;59.95;;;53.65;;
52738;SDS011;52466;40.122;18.318;2022-07-22T03:03:59;60.20;;;53.67;;
52738;SDS011;52466;40.122;18.318;2022-07-22T03:07:11;59.80;;;53.60;;
52738;SDS011;52466;40.122;18.318;2022-07-22T03:10:19;59.83;;;53.47;;
52738;SDS011;52466;40.122;18.318;2022-07-22T03:13:27;59.35;;;53.25;;
52738;SDS011;52466;40.122;18.318;2022-07-22T03:16:35;59.95;;;53.40;;
52738;SDS011;52466;40.122;18.318;2022-07-22T03:19:43;58.83;;;52.72;;
52738;SDS011;52466;40.122;18.318;2022-07-22T03:22:51;58.47;;;52.40;;
52738;SDS011;52466;40.122;18.318;2022-07-22T03:25:58;58.78;;;52.58;;
52738;SDS011;52466;40.122;18.318;2022-07-22T03:29:06;58.35;;;52.13;;
52738;SDS011;52466;40.122;18.318;2022-07-22T03:32:14;57.90;;;52.00;;
52738;SDS011;52466;40.122;18.318;2022-07-22T03:35:23;58.13;;;52.17;;
52738;SDS011;52466;40.122;18.318;2022-07-22T03:38:33;58.38;;;52.17;;
52738;SDS011;52466;40.122;18.318;2022-07-22T03:41:42;58.88;;;52.58;;
52738;SDS011;52466;40.122;18.318;2022-07-22T03:44:50;58.78;;;52.45;;
52738;SDS011;52466;40.122;18.318;2022-07-22T03:47:58;58.95;;;52.90;;
52738;SDS011;52466;40.122;18.318;2022-07-22T03:51:10;60.45;;;53.33;;
52738;SDS011;52466;40.122;18.318;2022-07-22T03:54:18;61.38;;;52.58;;
52738;SDS011;52466;40.122;18.318;2022-07-22T03:57:26;59.17;;;52.70;;
52738;SDS011;52466;40.122;18.318;2022-07-22T04:00:44;59.03;;;52.67;;
52738;SDS011;52466;40.122;18.318;2022-07-22T04:03:52;58.47;;;52.40;;
52738;SDS011;52466;40.122;18.318;2022-07-22T04:07:04;59.03;;;52.83;;
52738;SDS011;52466;40.122;18.318;2022-07-22T04:10:11;58.83;;;52.72;;
52738;SDS011;52466;40.122;18.318;2022-07-22T04:13:19;59.25;;;53.05;;
52738;SDS011;52466;40.122;18.318;2022-07-22T04:16:32;59.20;;;52.92;;
52738;SDS011;52466;40.122;18.318;2022-07-22T04:19:44;62.08;;;53.50;;
52738;SDS011;52466;40.122;18.318;2022-07-22T04:22:59;59.72;;;53.22;;
52738;SDS011;52466;40.122;18.318;2022-07-22T04:26:06;59.20;;;52.88;;
52738;SDS011;52466;40.122;18.318;2022-07-22T04:29:14;59.00;;;52.97;;
52738;SDS011;52466;40.122;18.318;2022-07-22T04:32:22;64.32;;;53.35;;
52738;SDS011;52466;40.122;18.318;2022-07-22T04:35:30;59.55;;;52.97;;
52738;SDS011;52466;40.122;18.318;2022-07-22T04:38:44;59.85;;;53.45;;
52738;SDS011;52466;40.122;18.318;2022-07-22T04:41:53;61.22;;;53.40;;
52738;SDS011;52466;40.122;18.318;2022-07-22T04:45:04;59.92;;;53.72;;
52738;SDS011;52466;40.122;18.318;2022-07-22T04:48:13;60.25;;;53.65;;
52738;SDS011;52466;40.122;18.318;2022-07-22T04:51:22;59.97;;;53.55;;
52738;SDS011;52466;40.122;18.318;2022-07-22T04:54:37;60.63;;;54.13;;
52738;SDS011;52466;40.122;18.318;2022-07-22T04:57:45;60.10;;;53.50;;
52738;SDS011;52466;40.122;18.318;2022-07-22T05:00:53;61.97;;;54.00;;
52738;SDS011;52466;40.122;18.318;2022-07-22T05:04:01;60.30;;;53.90;;
52738;SDS011;52466;40.122;18.318;2022-07-22T05:07:12;60.22;;;53.92;;
52738;SDS011;52466;40.122;18.318;2022-07-22T05:10:20;62.20;;;54.25;;
52738;SDS011;52466;40.122;18.318;2022-07-22T05:13:28;61.13;;;54.10;;
52738;SDS011;52466;40.122;18.318;2022-07-22T05:16:36;59.55;;;53.38;;
52738;SDS011;52466;40.122;18.318;2022-07-22T05:19:44;60.45;;;53.97;;
52738;SDS011;52466;40.122;18.318;2022-07-22T05:22:52;60.70;;;54.05;;
52738;SDS011;52466;40.122;18.318;2022-07-22T05:26:03;60.83;;;54.05;;
52738;SDS011;52466;40.122;18.318;2022-07-22T05:29:12;60.33;;;53.92;;
52738;SDS011;52466;40.122;18.318;2022-07-22T05:32:19;60.55;;;53.78;;
52738;SDS011;52466;40.122;18.318;2022-07-22T05:35:32;60.72;;;54.22;;
52738;SDS011;52466;40.122;18.318;2022-07-22T05:38:39;61.22;;;54.33;;
52738;SDS011;52466;40.122;18.318;2022-07-22T05:41:47;61.20;;;54.60;;
52738;SDS011;52466;40.122;18.318;2022-07-22T05:44:55;61.13;;;54.50;;
52738;SDS011;52466;40.122;18.318;2022-07-22T05:48:02;62.53;;;54.63;;
52738;SDS011;52466;40.122;18.318;2022-07-22T05:51:11;61.67;;;55.05;;
52738;SDS011;52466;40.122;18.318;2022-07-22T05:54:19;61.60;;;55.15;;
52738;SDS011;52466;40.122;18.318;2022-07-22T05:57:27;63.38;;;56.25;;
52738;SDS011;52466;40.122;18.318;2022-07-22T06:00:36;63.38;;;56.67;;
52738;SDS011;52466;40.122;18.318;2022-07-22T06:03:46;62.83;;;56.22;;
52738;SDS011;52466;40.122;18.318;2022-07-22T06:06:54;63.08;;;56.50;;
52738;SDS011;52466;40.122;18.318;2022-07-22T06:10:02;63.30;;;56.70;;
52738;SDS011;52466;40.122;18.318;2022-07-22T06:13:10;63.58;;;56.67;;
52738;SDS011;52466;40.122;18.318;2022-07-22T06:16:18;64.25;;;57.25;;
52738;SDS011;52466;40.122;18.318;2022-07-22T06:19:30;65.35;;;57.20;;
52738;SDS011;52466;40.122;18.318;2022-07-22T06:22:39;64.25;;;57.25;;
52738;SDS011;52466;40.122;18.318;2022-07-22T06:25:48;63.97;;;56.95;;
52738;SDS011;52466;40.122;18.318;2022-07-22T06:29:01;62.88;;;56.22;;
52738;SDS011;52466;40.122;18.318;2022-07-22T06:32:11;63.10;;;56.22;;
52738;SDS011;52466;40.122;18.318;2022-07-22T06:35:19;61.97;;;55.38;;
52738;SDS011;52466;40.122;18.318;2022-07-22T06:38:26;62.22;;;55.42;;
52738;SDS011;52466;40.122;18.318;2022-07-22T06:42:09;61.72;;;55.03;;
52738;SDS011;52466;40.122;18.318;2022-07-22T06:45:36;61.28;;;54.42;;
52738;SDS011;52466;40.122;18.318;2022-07-22T06:48:53;62.42;;;54.75;;
52738;SDS011;52466;40.122;18.318;2022-07-22T06:52:04;61.17;;;54.58;;
52738;SDS011;52466;40.122;18.318;2022-07-22T06:55:12;60.30;;;53.97;;
52738;SDS011;52466;40.122;18.318;2022-07-22T06:58:31;60.92;;;54.33;;
52738;SDS011;52466;40.122;18.318;2022-07-22T07:01:39;60.78;;;54.28;;
52738;SDS011;52466;40.122;18.318;2022-07-22T07:04:47;60.47;;;53.92;;
52738;SDS011;52466;40.122;18.318;2022-07-22T07:07:55;60.85;;;54.22;;
52738;SDS011;52466;40.122;18.318;2022-07-22T07:11:04;60.47;;;53.80;;
52738;SDS011;52466;40.122;18.318;2022-07-22T07:14:12;60.58;;;54.08;;
52738;SDS011;52466;40.122;18.318;2022-07-22T07:17:20;104.18;;;56.53;;
52738;SDS011;52466;40.122;18.318;2022-07-22T07:20:27;60.22;;;53.83;;
52738;SDS011;52466;40.122;18.318;2022-07-22T07:23:35;60.85;;;54.17;;
52738;SDS011;52466;40.122;18.318;2022-07-22T07:26:43;60.13;;;53.85;;
52738;SDS011;52466;40.122;18.318;2022-07-22T07:29:51;60.33;;;53.83;;
52738;SDS011;52466;40.122;18.318;2022-07-22T07:33:00;60.03;;;53.75;;
52738;SDS011;52466;40.122;18.318;2022-07-22T07:36:08;60.08;;;53.78;;
52738;SDS011;52466;40.122;18.318;2022-07-22T07:39:21;59.90;;;53.60;;
52738;SDS011;52466;40.122;18.318;2022-07-22T07:42:29;59.90;;;53.58;;
52738;SDS011;52466;40.122;18.318;2022-07-22T07:45:37;60.42;;;53.92;;
52738;SDS011;52466;40.122;18.318;2022-07-22T07:48:45;60.55;;;53.95;;
52738;SDS011;52466;40.122;18.318;2022-07-22T07:51:54;59.78;;;53.45;;
52738;SDS011;52466;40.122;18.318;2022-07-22T07:55:02;60.38;;;53.97;;
52738;SDS011;52466;40.122;18.318;2022-07-22T07:58:10;60.45;;;53.72;;
52738;SDS011;52466;40.122;18.318;2022-07-22T08:01:18;60.10;;;53.72;;
52738;SDS011;52466;40.122;18.318;2022-07-22T08:04:26;59.83;;;53.53;;
52738;SDS011;52466;40.122;18.318;2022-07-22T08:07:34;60.13;;;53.92;;
52738;SDS011;52466;40.122;18.318;2022-07-22T08:10:44;61.15;;;53.38;;
52738;SDS011;52466;40.122;18.318;2022-07-22T08:14:12;60.88;;;54.17;;
52738;SDS011;52466;40.122;18.318;2022-07-22T08:17:36;60.05;;;53.70;;
52738;SDS011;52466;40.122;18.318;2022-07-22T08:20:44;60.05;;;53.65;;
52738;SDS011;52466;40.122;18.318;2022-07-22T08:23:53;60.05;;;53.55;;
52738;SDS011;52466;40.122;18.318;2022-07-22T08:27:02;59.92;;;53.53;;
52738;SDS011;52466;40.122;18.318;2022-07-22T08:30:10;59.85;;;53.35;;
52738;SDS011;52466;40.122;18.318;2022-07-22T08:33:18;60.08;;;53.67;;
52738;SDS011;52466;40.122;18.318;2022-07-22T08:36:27;59.47;;;53.35;;
52738;SDS011;52466;40.122;18.318;2022-07-22T08:39:36;60.13;;;53.72;;
52738;SDS011;52466;40.122;18.318;2022-07-22T08:42:45;59.67;;;53.47;;
52738;SDS011;52466;40.122;18.318;2022-07-22T08:45:54;59.72;;;53.53;;
52738;SDS011;52466;40.122;18.318;2022-07-22T08:49:08;60.25;;;53.83;;
52738;SDS011;52466;40.122;18.318;2022-07-22T08:52:37;59.63;;;53.38;;
52738;SDS011;52466;40.122;18.318;2022-07-22T08:55:46;60.15;;;53.70;;
52738;SDS011;52466;40.122;18.318;2022-07-22T08:58:55;59.85;;;53.45;;
52738;SDS011;52466;40.122;18.318;2022-07-22T09:02:07;60.33;;;53.80;;
52738;SDS011;52466;40.122;18.318;2022-07-22T09:05:18;59.88;;;53.58;;
52738;SDS011;52466;40.122;18.318;2022-07-22T09:08:27;64.28;;;53.80;;
52738;SDS011;52466;40.122;18.318;2022-07-22T09:11:48;60.28;;;53.60;;
52738;SDS011;52466;40.122;18.318;2022-07-22T09:15:34;59.83;;;53.47;;
52738;SDS011;52466;40.122;18.318;2022-07-22T09:19:01;59.85;;;53.65;;
52738;SDS011;52466;40.122;18.318;2022-07-22T09:22:33;59.70;;;53.53;;
52738;SDS011;52466;40.122;18.318;2022-07-22T09:25:58;59.90;;;53.63;;
52738;SDS011;52466;40.122;18.318;2022-07-22T09:29:24;60.40;;;53.63;;
52738;SDS011;52466;40.122;18.318;2022-07-22T09:32:52;59.70;;;53.35;;
52738;SDS011;52466;40.122;18.318;2022-07-22T09:36:26;59.65;;;53.40;;
52738;SDS011;52466;40.122;18.318;2022-07-22T09:39:34;59.38;;;53.15;;
52738;SDS011;52466;40.122;18.318;2022-07-22T09:42:49;63.30;;;53.65;;
52738;SDS011;52466;40.122;18.318;2022-07-22T09:45:59;59.97;;;53.67;;
52738;SDS011;52466;40.122;18.318;2022-07-22T09:49:33;59.67;;;53.40;;
52738;SDS011;52466;40.122;18.318;2022-07-22T09:53:01;59.67;;;53.47;;
52738;SDS011;52466;40.122;18.318;2022-07-22T09:56:14;59.55;;;53.25;;
52738;SDS011;52466;40.122;18.318;2022-07-22T09:59:23;59.67;;;53.47;;
52738;SDS011;52466;40.122;18.318;2022-07-22T10:02:44;59.80;;;53.45;;
52738;SDS011;52466;40.122;18.318;2022-07-22T10:05:57;59.40;;;53.25;;
52738;SDS011;52466;40.122;18.318;2022-07-22T10:09:06;59.38;;;53.20;;
52738;SDS011;52466;40.122;18.318;2022-07-22T10:12:16;59.83;;;53.58;;
52738;SDS011;52466;40.122;18.318;2022-07-22T10:15:26;59.33;;;53.22;;
52738;SDS011;52466;40.122;18.318;2022-07-22T10:18:38;59.63;;;53.45;;
52738;SDS011;52466;40.122;18.318;2022-07-22T10:21:46;60.17;;;53.53;;
52738;SDS011;52466;40.122;18.318;2022-07-22T10:25:01;59.47;;;53.17;;
52738;SDS011;52466;40.122;18.318;2022-07-22T10:28:10;63.13;;;53.53;;
52738;SDS011;52466;40.122;18.318;2022-07-22T10:35:25;59.42;;;53.33;;
52738;SDS011;52466;40.122;18.318;2022-07-22T10:41:45;59.85;;;53.65;;
52738;SDS011;52466;40.122;18.318;2022-07-22T10:44:53;59.70;;;53.58;;
52738;SDS011;52466;40.122;18.318;2022-07-22T10:48:05;59.95;;;53.65;;
52738;SDS011;52466;40.122;18.318;2022-07-22T10:51:18;59.20;;;53.10;;
52738;SDS011;52466;40.122;18.318;2022-07-22T10:54:28;59.92;;;53.63;;
52738;SDS011;52466;40.122;18.318;2022-07-22T10:57:36;59.35;;;53.22;;
52738;SDS011;52466;40.122;18.318;2022-07-22T11:00:45;59.83;;;53.60;;
52738;SDS011;52466;40.122;18.318;2022-07-22T11:03:52;59.70;;;53.50;;
52738;SDS011;52466;40.122;18.318;2022-07-22T11:07:01;59.83;;;53.65;;
52738;SDS011;52466;40.122;18.318;2022-07-22T11:13:35;59.42;;;53.33;;
52738;SDS011;52466;40.122;18.318;2022-07-22T11:16:44;59.80;;;53.63;;
52738;SDS011;52466;40.122;18.318;2022-07-22T11:19:55;60.05;;;53.75;;
52738;SDS011;52466;40.122;18.318;2022-07-22T11:23:03;60.35;;;53.72;;
52738;SDS011;52466;40.122;18.318;2022-07-22T11:26:12;59.78;;;53.47;;
52738;SDS011;52466;40.122;18.318;2022-07-22T11:32:41;59.70;;;53.53;;
52738;SDS011;52466;40.122;18.318;2022-07-22T11:36:04;59.95;;;53.65;;
52738;SDS011;52466;40.122;18.318;2022-07-22T11:39:14;59.53;;;53.42;;
52738;SDS011;52466;40.122;18.318;2022-07-22T11:42:26;60.38;;;53.80;;
52738;SDS011;52466;40.122;18.318;2022-07-22T11:45:34;60.15;;;53.75;;
52738;SDS011;52466;40.122;18.318;2022-07-22T11:48:42;59.97;;;53.70;;
52738;SDS011;52466;40.122;18.318;2022-07-22T11:51:51;59.75;;;53.58;;
52738;SDS011;52466;40.122;18.318;2022-07-22T11:54:59;59.47;;;53.20;;
52738;SDS011;52466;40.122;18.318;2022-07-22T11:58:07;59.38;;;53.35;;
52738;SDS011;52466;40.122;18.318;2022-07-22T12:01:16;60.15;;;53.65;;
52738;SDS011;52466;40.122;18.318;2022-07-22T12:04:25;59.70;;;53.47;;
52738;SDS011;52466;40.122;18.318;2022-07-22T12:07:34;59.45;;;53.25;;
52738;SDS011;52466;40.122;18.318;2022-07-22T12:10:42;59.90;;;53.70;;
52738;SDS011;52466;40.122;18.318;2022-07-22T12:13:51;59.53;;;53.38;;
52738;SDS011;52466;40.122;18.318;2022-07-22T12:17:06;60.05;;;53.75;;
52738;SDS011;52466;40.122;18.318;2022-07-22T12:20:18;59.80;;;53.40;;
52738;SDS011;52466;40.122;18.318;2022-07-22T12:23:32;59.67;;;53.58;;
52738;SDS011;52466;40.122;18.318;2022-07-22T12:29:50;60.05;;;53.70;;
52738;SDS011;52466;40.122;18.318;2022-07-22T12:32:58;59.67;;;53.45;;
52738;SDS011;52466;40.122;18.318;2022-07-22T12:36:08;60.25;;;53.95;;
52738;SDS011;52466;40.122;18.318;2022-07-22T12:39:16;59.90;;;53.53;;
52738;SDS011;52466;40.122;18.318;2022-07-22T12:42:27;59.65;;;53.55;;
52738;SDS011;52466;40.122;18.318;2022-07-22T12:45:38;59.88;;;53.72;;
52738;SDS011;52466;40.122;18.318;2022-07-22T12:48:52;59.97;;;53.78;;
52738;SDS011;52466;40.122;18.318;2022-07-22T12:52:11;59.80;;;53.72;;
52738;SDS011;52466;40.122;18.318;2022-07-22T12:55:20;59.85;;;53.55;;
52738;SDS011;52466;40.122;18.318;2022-07-22T12:58:29;59.92;;;53.63;;
52738;SDS011;52466;40.122;18.318;2022-07-22T13:01:38;60.28;;;53.95;;
52738;SDS011;52466;40.122;18.318;2022-07-22T13:04:45;60.08;;;53.92;;
52738;SDS011;52466;40.122;18.318;2022-07-22T13:07:53;60.05;;;53.65;;
52738;SDS011;52466;40.122;18.318;2022-07-22T13:11:02;60.08;;;53.78;;
52738;SDS011;52466;40.122;18.318;2022-07-22T13:14:10;60.47;;;53.97;;
52738;SDS011;52466;40.122;18.318;2022-07-22T13:17:19;59.95;;;53.83;;
52738;SDS011;52466;40.122;18.318;2022-07-22T13:20:27;59.63;;;53.40;;
52738;SDS011;52466;40.122;18.318;2022-07-22T13:23:34;59.85;;;53.67;;
52738;SDS011;52466;40.122;18.318;2022-07-22T13:26:42;59.95;;;53.55;;
52738;SDS011;52466;40.122;18.318;2022-07-22T13:29:50;60.47;;;54.03;;
52738;SDS011;52466;40.122;18.318;2022-07-22T13:32:57;59.97;;;53.67;;
52738;SDS011;52466;40.122;18.318;2022-07-22T13:36:05;60.22;;;54.03;;
52738;SDS011;52466;40.122;18.318;2022-07-22T13:39:13;60.20;;;54.00;;
52738;SDS011;52466;40.122;18.318;2022-07-22T13:42:27;59.70;;;53.60;;
52738;SDS011;52466;40.122;18.318;2022-07-22T13:46:03;59.92;;;53.78;;
52738;SDS011;52466;40.122;18.318;2022-07-22T13:49:11;60.92;;;54.25;;
52738;SDS011;52466;40.122;18.318;2022-07-22T13:52:19;60.15;;;53.75;;
52738;SDS011;52466;40.122;18.318;2022-07-22T13:55:27;60.53;;;54.03;;
52738;SDS011;52466;40.122;18.318;2022-07-22T13:58:35;60.30;;;53.90;;
52738;SDS011;52466;40.122;18.318;2022-07-22T14:01:44;60.15;;;53.70;;
52738;SDS011;52466;40.122;18.318;2022-07-22T14:04:52;60.47;;;54.03;;
52738;SDS011;52466;40.122;18.318;2022-07-22T14:08:00;60.17;;;53.78;;
52738;SDS011;52466;40.122;18.318;2022-07-22T14:11:07;60.75;;;54.15;;
52738;SDS011;52466;40.122;18.318;2022-07-22T14:14:15;60.47;;;53.90;;
52738;SDS011;52466;40.122;18.318;2022-07-22T14:17:23;59.75;;;53.55;;
52738;SDS011;52466;40.122;18.318;2022-07-22T14:20:30;63.33;;;54.05;;
52738;SDS011;52466;40.122;18.318;2022-07-22T14:23:38;61.60;;;54.08;;
52738;SDS011;52466;40.122;18.318;2022-07-22T14:26:46;60.20;;;53.90;;
52738;SDS011;52466;40.122;18.318;2022-07-22T14:29:54;62.70;;;53.93;;
52738;SDS011;52466;40.122;18.318;2022-07-22T14:33:02;60.30;;;54.00;;
52738;SDS011;52466;40.122;18.318;2022-07-22T14:36:09;60.22;;;53.92;;
52738;SDS011;52466;40.122;18.318;2022-07-22T14:39:18;60.58;;;54.15;;
52738;SDS011;52466;40.122;18.318;2022-07-22T14:42:25;60.75;;;54.30;;
52738;SDS011;52466;40.122;18.318;2022-07-22T14:45:33;60.53;;;53.95;;
52738;SDS011;52466;40.122;18.318;2022-07-22T14:48:40;60.47;;;54.17;;
52738;SDS011;52466;40.122;18.318;2022-07-22T14:51:48;60.15;;;53.95;;
52738;SDS011;52466;40.122;18.318;2022-07-22T14:54:56;60.50;;;53.90;;
52738;SDS011;52466;40.122;18.318;2022-07-22T14:58:04;60.75;;;54.28;;
52738;SDS011;52466;40.122;18.318;2022-07-22T15:01:11;60.72;;;54.22;;
52738;SDS011;52466;40.122;18.318;2022-07-22T15:04:20;60.50;;;54.10;;
52738;SDS011;52466;40.122;18.318;2022-07-22T15:07:28;60.70;;;54.30;;
52738;SDS011;52466;40.122;18.318;2022-07-22T15:10:36;60.50;;;54.00;;
52738;SDS011;52466;40.122;18.318;2022-07-22T15:13:44;60.75;;;54.30;;
52738;SDS011;52466;40.122;18.318;2022-07-22T15:16:52;60.33;;;53.97;;
52738;SDS011;52466;40.122;18.318;2022-07-22T15:19:59;60.45;;;54.17;;
52738;SDS011;52466;40.122;18.318;2022-07-22T15:23:14;60.72;;;54.03;;
52738;SDS011;52466;40.122;18.318;2022-07-22T15:26:27;60.15;;;53.80;;
52738;SDS011;52466;40.122;18.318;2022-07-22T15:29:34;60.58;;;54.17;;
52738;SDS011;52466;40.122;18.318;2022-07-22T15:32:42;61.20;;;54.55;;
52738;SDS011;52466;40.122;18.318;2022-07-22T15:35:50;61.10;;;54.38;;
52738;SDS011;52466;40.122;18.318;2022-07-22T15:38:58;60.58;;;53.97;;
52738;SDS011;52466;40.122;18.318;2022-07-22T15:42:05;65.63;;;54.53;;
52738;SDS011;52466;40.122;18.318;2022-07-22T15:45:14;60.97;;;54.58;;
52738;SDS011;52466;40.122;18.318;2022-07-22T15:48:22;61.30;;;54.63;;
52738;SDS011;52466;40.122;18.318;2022-07-22T15:51:30;60.50;;;54.25;;
52738;SDS011;52466;40.122;18.318;2022-07-22T15:54:37;61.08;;;54.67;;
52738;SDS011;52466;40.122;18.318;2022-07-22T15:57:48;60.70;;;54.38;;
52738;SDS011;52466;40.122;18.318;2022-07-22T16:01:14;60.92;;;54.42;;
52738;SDS011;52466;40.122;18.318;2022-07-22T16:04:21;60.75;;;54.25;;
52738;SDS011;52466;40.122;18.318;2022-07-22T16:07:29;61.45;;;54.42;;
52738;SDS011;52466;40.122;18.318;2022-07-22T16:10:37;60.58;;;54.28;;
52738;SDS011;52466;40.122;18.318;2022-07-22T16:13:44;60.72;;;54.33;;
52738;SDS011;52466;40.122;18.318;2022-07-22T16:16:52;61.40;;;54.80;;
52738;SDS011;52466;40.122;18.318;2022-07-22T16:20:01;62.00;;;54.65;;
52738;SDS011;52466;40.122;18.318;2022-07-22T16:23:08;62.15;;;55.35;;
52738;SDS011;52466;40.122;18.318;2022-07-22T16:26:16;62.03;;;55.47;;
52738;SDS011;52466;40.122;18.318;2022-07-22T16:29:24;63.55;;;55.22;;
52738;SDS011;52466;40.122;18.318;2022-07-22T16:32:31;62.67;;;55.65;;
52738;SDS011;52466;40.122;18.318;2022-07-22T16:35:39;60.97;;;54.47;;
52738;SDS011;52466;40.122;18.318;2022-07-22T16:38:47;61.40;;;54.80;;
52738;SDS011;52466;40.122;18.318;2022-07-22T16:41:54;61.25;;;54.75;;
52738;SDS011;52466;40.122;18.318;2022-07-22T16:45:02;63.65;;;55.28;;
52738;SDS011;52466;40.122;18.318;2022-07-22T16:48:10;60.70;;;54.22;;
52738;SDS011;52466;40.122;18.318;2022-07-22T16:51:18;61.72;;;54.80;;
52738;SDS011;52466;40.122;18.318;2022-07-22T16:54:26;61.40;;;54.70;;
52738;SDS011;52466;40.122;18.318;2022-07-22T16:57:33;61.25;;;54.60;;
52738;SDS011;52466;40.122;18.318;2022-07-22T17:00:41;61.67;;;54.92;;
52738;SDS011;52466;40.122;18.318;2022-07-22T17:03:49;60.72;;;54.42;;
52738;SDS011;52466;40.122;18.318;2022-07-22T17:09:59;60.88;;;54.20;;
52738;SDS011;52466;40.122;18.318;2022-07-22T17:13:07;60.95;;;54.53;;
52738;SDS011;52466;40.122;18.318;2022-07-22T17:16:14;62.13;;;54.25;;
52738;SDS011;52466;40.122;18.318;2022-07-22T17:19:22;60.50;;;54.17;;
52738;SDS011;52466;40.122;18.318;2022-07-22T17:22:30;60.80;;;54.38;;
52738;SDS011;52466;40.122;18.318;2022-07-22T17:25:39;60.80;;;54.20;;
52738;SDS011;52466;40.122;18.318;2022-07-22T17:28:47;61.10;;;54.35;;
52738;SDS011;52466;40.122;18.318;2022-07-22T17:31:55;60.75;;;54.25;;
52738;SDS011;52466;40.122;18.318;2022-07-22T17:35:03;60.75;;;54.25;;
52738;SDS011;52466;40.122;18.318;2022-07-22T17:38:11;61.33;;;54.80;;
52738;SDS011;52466;40.122;18.318;2022-07-22T17:41:19;60.65;;;54.10;;
52738;SDS011;52466;40.122;18.318;2022-07-22T17:44:26;66.55;;;54.60;;
52738;SDS011;52466;40.122;18.318;2022-07-22T17:47:34;61.95;;;53.83;;
52738;SDS011;52466;40.122;18.318;2022-07-22T17:50:42;61.10;;;54.40;;
52738;SDS011;52466;40.122;18.318;2022-07-22T17:53:50;61.50;;;54.53;;
52738;SDS011;52466;40.122;18.318;2022-07-22T17:56:58;63.13;;;54.15;;
52738;SDS011;52466;40.122;18.318;2022-07-22T18:00:06;65.78;;;54.42;;
52738;SDS011;52466;40.122;18.318;2022-07-22T18:03:15;64.20;;;54.55;;
52738;SDS011;52466;40.122;18.318;2022-07-22T18:06:23;64.65;;;55.10;;
52738;SDS011;52466;40.122;18.318;2022-07-22T18:09:31;62.60;;;54.40;;
52738;SDS011;52466;40.122;18.318;2022-07-22T18:12:38;64.93;;;54.40;;
52738;SDS011;52466;40.122;18.318;2022-07-22T18:15:46;65.28;;;54.58;;
52738;SDS011;52466;40.122;18.318;2022-07-22T18:18:54;71.30;;;54.90;;
52738;SDS011;52466;40.122;18.318;2022-07-22T18:22:03;65.85;;;54.72;;
52738;SDS011;52466;40.122;18.318;2022-07-22T18:25:11;62.20;;;54.10;;
52738;SDS011;52466;40.122;18.318;2022-07-22T18:28:19;61.10;;;53.97;;
52738;SDS011;52466;40.122;18.318;2022-07-22T18:31:26;63.08;;;54.17;;
52738;SDS011;52466;40.122;18.318;2022-07-22T18:34:34;70.43;;;55.80;;